Time;durP1;ratioP1;P1;durP2;ratioP2;P2;SDS_P1;SDS_P2;PMS_P1;PMS_P2;Temp;Humidity;BMP_temperature;BMP_pressure;BME280_temperature;BME280_humidity;BME280_pressure;Samples;Min_cycle;Max_cycle;Signal;HPM_P1;HPM_P2
2023/04/21 00:00:07;;;;;;;5.68;5.28;;;9.70;99.90;;;;;;5006510;28;20204;-74
2023/04/21 00:02:38;;;;;;;6.13;5.68;;;9.70;99.90;;;;;;5001953;28;20224;-74
2023/04/21 00:05:08;;;;;;;7.28;6.68;;;9.80;99.90;;;;;;4989059;28;20279;-75
2023/04/21 00:07:36;;;;;;;5.90;5.50;;;9.80;99.90;;;;;;5003967;28;20207;-75
2023/04/21 00:10:04;;;;;;;64.10;9.38;;;9.80;99.90;;;;;;5000437;28;20201;-74
2023/04/21 00:12:33;;;;;;;30.02;7.43;;;9.80;99.90;;;;;;4997777;28;20286;-74
2023/04/21 00:15:00;;;;;;;6.32;5.82;;;9.70;99.90;;;;;;5000648;28;20232;-74
2023/04/21 00:17:27;;;;;;;5.45;5.05;;;9.50;99.90;;;;;;4997720;28;20216;-74
2023/04/21 00:19:54;;;;;;;4.63;4.22;;;9.40;99.90;;;;;;4987041;28;20737;-73
2023/04/21 00:22:22;;;;;;;3.55;3.30;;;9.40;99.90;;;;;;4980687;28;20382;-73
2023/04/21 00:24:49;;;;;;;3.40;3.20;;;9.40;99.90;;;;;;4996138;28;20639;-73
2023/04/21 00:27:16;;;;;;;2.80;2.70;;;9.40;99.90;;;;;;4984676;28;20674;-74
2023/04/21 00:29:44;;;;;;;2.90;2.70;;;9.40;99.90;;;;;;4998220;28;20604;-73
2023/04/21 00:32:11;;;;;;;3.78;3.55;;;9.40;99.90;;;;;;5002412;28;20769;-74
2023/04/21 00:34:38;;;;;;;4.32;4.03;;;9.40;99.90;;;;;;4999677;28;20713;-73
2023/04/21 00:37:05;;;;;;;4.45;4.15;;;9.40;99.90;;;;;;4999946;28;20244;-74
2023/04/21 00:39:32;;;;;;;3.58;3.38;;;9.30;99.90;;;;;;4997694;28;20275;-72
2023/04/21 00:42:00;;;;;;;4.00;3.70;;;9.20;99.90;;;;;;5002594;28;20307;-74
2023/04/21 00:44:27;;;;;;;5.22;4.82;;;9.10;99.90;;;;;;5001998;28;20224;-74
2023/04/21 00:46:55;;;;;;;4.45;4.10;;;9.10;99.90;;;;;;5002391;28;20196;-72
2023/04/21 00:49:24;;;;;;;3.90;3.60;;;9.00;99.90;;;;;;4998201;28;20288;-73
2023/04/21 00:51:52;;;;;;;3.88;3.13;;;9.00;99.90;;;;;;4997056;28;20212;-75
2023/04/21 00:54:20;;;;;;;3.22;3.03;;;9.10;99.90;;;;;;5001260;28;20294;-75
2023/04/21 00:56:47;;;;;;;2.88;2.78;;;9.10;99.90;;;;;;5000751;28;20314;-75
2023/04/21 00:59:14;;;;;;;2.88;2.67;;;9.20;99.90;;;;;;4987248;28;20213;-74
2023/04/21 01:01:42;;;;;;;3.03;2.83;;;9.30;99.90;;;;;;5007774;28;20239;-74
2023/04/21 01:04:10;;;;;;;2.33;2.22;;;9.30;99.90;;;;;;5002792;28;20278;-74
2023/04/21 01:06:38;;;;;;;2.80;2.60;;;9.40;99.90;;;;;;5002132;28;20292;-74
2023/04/21 01:09:05;;;;;;;2.63;2.42;;;9.40;99.90;;;;;;5001551;28;20205;-74
2023/04/21 01:11:32;;;;;;;3.03;2.83;;;9.40;99.90;;;;;;5002033;28;20916;-74
2023/04/21 01:13:59;;;;;;;2.85;2.65;;;9.40;99.90;;;;;;4999192;28;20702;-74
2023/04/21 01:16:28;;;;;;;2.72;2.63;;;9.30;99.90;;;;;;4998869;28;20216;-74
2023/04/21 01:18:55;;;;;;;2.45;2.35;;;9.30;99.90;;;;;;5001539;28;20196;-74
2023/04/21 01:21:25;;;;;;;2.25;2.15;;;9.30;99.90;;;;;;4983413;28;20666;-74
2023/04/21 01:23:54;;;;;;;2.50;2.40;;;9.30;99.90;;;;;;4983627;28;20447;-74
2023/04/21 01:26:22;;;;;;;2.33;2.22;;;9.30;99.90;;;;;;4998409;28;20192;-74
2023/04/21 01:28:50;;;;;;;1.80;1.70;;;9.30;99.90;;;;;;5004472;28;20748;-74
2023/04/21 01:31:19;;;;;;;1.77;1.67;;;9.40;99.90;;;;;;5002715;28;20212;-74
2023/04/21 01:33:46;;;;;;;1.95;1.85;;;9.40;99.90;;;;;;4998425;28;20228;-74
2023/04/21 01:36:13;;;;;;;1.80;1.70;;;9.40;99.90;;;;;;4998336;28;20315;-74
2023/04/21 01:38:42;;;;;;;1.55;1.55;;;9.40;99.90;;;;;;4981074;28;20710;-74
2023/04/21 01:41:10;;;;;;;1.67;1.67;;;9.40;99.90;;;;;;4999922;28;20302;-74
2023/04/21 01:43:38;;;;;;;1.25;1.25;;;9.40;99.90;;;;;;5001966;28;20307;-74
2023/04/21 01:46:05;;;;;;;1.75;1.65;;;9.40;99.90;;;;;;5002369;28;20228;-74
2023/04/21 01:48:33;;;;;;;1.40;1.40;;;9.30;99.90;;;;;;4999857;28;20239;-73
2023/04/21 01:51:00;;;;;;;1.20;1.20;;;9.30;99.90;;;;;;4984650;28;20211;-73
2023/04/21 01:53:27;;;;;;;1.30;1.30;;;9.30;99.90;;;;;;4987296;28;20246;-73
2023/04/21 01:55:54;;;;;;;1.20;1.20;;;9.30;99.90;;;;;;4997950;28;20245;-74
2023/04/21 01:58:22;;;;;;;1.50;1.50;;;9.30;99.90;;;;;;4968331;28;20203;-73
2023/04/21 02:00:50;;;;;;;1.30;1.30;;;9.30;99.90;;;;;;4999619;28;20280;-73
2023/04/21 02:03:17;;;;;;;1.70;1.60;;;9.30;99.90;;;;;;4982348;28;20264;-74
2023/04/21 02:05:45;;;;;;;1.50;1.50;;;9.30;99.90;;;;;;5003210;28;20278;-73
2023/04/21 02:08:13;;;;;;;1.33;1.33;;;9.20;99.90;;;;;;4999361;28;20287;-73
2023/04/21 02:10:40;;;;;;;1.50;1.50;;;9.20;99.90;;;;;;4982135;28;20235;-73
2023/04/21 02:13:07;;;;;;;1.30;1.30;;;9.30;99.90;;;;;;4999871;28;20236;-74
2023/04/21 02:15:37;;;;;;;1.50;1.50;;;9.30;99.90;;;;;;5004639;28;20231;-73
2023/04/21 02:18:05;;;;;;;1.33;1.33;;;9.30;99.90;;;;;;4998563;28;20248;-73
2023/04/21 02:20:32;;;;;;;1.52;1.52;;;9.30;99.90;;;;;;5000422;28;20212;-73
2023/04/21 02:22:59;;;;;;;1.55;1.55;;;9.20;99.90;;;;;;5001280;28;20252;-72
2023/04/21 02:25:26;;;;;;;1.50;1.40;;;9.20;99.90;;;;;;4984950;28;20223;-74
2023/04/21 02:27:54;;;;;;;1.40;1.40;;;9.20;99.90;;;;;;4996691;28;20205;-74
2023/04/21 02:30:21;;;;;;;1.73;1.55;;;9.20;99.90;;;;;;4997760;28;20363;-72
2023/04/21 02:32:49;;;;;;;1.38;1.38;;;9.20;99.90;;;;;;5000216;28;20758;-73
2023/04/21 02:35:16;;;;;;;1.60;1.60;;;9.20;99.90;;;;;;5003059;28;20224;-73
2023/04/21 02:37:44;;;;;;;1.88;1.77;;;9.20;99.90;;;;;;4997680;28;20769;-72
2023/04/21 02:40:12;;;;;;;2.05;1.95;;;9.20;99.90;;;;;;5001091;28;20214;-73
2023/04/21 02:42:39;;;;;;;1.40;1.40;;;9.20;99.90;;;;;;4982179;28;20315;-74
2023/04/21 02:45:07;;;;;;;1.30;1.30;;;9.20;99.90;;;;;;5002197;28;20748;-74
2023/04/21 02:47:34;;;;;;;1.67;1.67;;;9.20;99.90;;;;;;4999469;28;20228;-73
2023/04/21 02:50:03;;;;;;;1.90;1.80;;;9.20;99.90;;;;;;4985983;28;20303;-73
2023/04/21 02:52:30;;;;;;;2.00;1.90;;;9.20;99.90;;;;;;4988009;28;20220;-73
2023/04/21 02:54:57;;;;;;;1.90;1.80;;;9.10;99.90;;;;;;5003575;28;20232;-73
2023/04/21 02:57:24;;;;;;;2.00;1.90;;;9.20;99.90;;;;;;5003744;28;20251;-73
2023/04/21 02:59:51;;;;;;;2.15;1.52;;;9.20;99.90;;;;;;5001499;28;20204;-74
2023/04/21 03:02:18;;;;;;;1.63;1.63;;;9.20;99.90;;;;;;5007119;28;20306;-73
2023/04/21 03:04:45;;;;;;;1.85;1.75;;;9.20;99.90;;;;;;4999551;28;20240;-73
2023/04/21 03:07:14;;;;;;;1.50;1.50;;;9.20;99.90;;;;;;5005777;28;20288;-72
2023/04/21 03:09:41;;;;;;;1.70;1.60;;;9.20;99.90;;;;;;5002935;28;20204;-73
2023/04/21 03:12:08;;;;;;;1.90;1.80;;;9.20;99.90;;;;;;5004847;28;20267;-74
2023/04/21 03:14:35;;;;;;;1.50;1.40;;;9.20;99.90;;;;;;5006264;28;20201;-74
2023/04/21 03:17:05;;;;;;;1.67;1.67;;;9.20;99.90;;;;;;5003655;28;20216;-72
2023/04/21 03:19:33;;;;;;;1.45;1.45;;;9.30;99.90;;;;;;5002932;28;20209;-74
2023/04/21 03:22:00;;;;;;;1.73;1.65;;;9.20;99.90;;;;;;5001396;28;20225;-73
2023/04/21 03:24:28;;;;;;;1.75;1.65;;;9.20;99.90;;;;;;5001177;28;20211;-74
2023/04/21 03:26:56;;;;;;;1.70;1.60;;;9.10;99.90;;;;;;5000280;28;20200;-74
2023/04/21 03:29:23;;;;;;;1.40;1.40;;;9.10;99.90;;;;;;4986456;28;20745;-74
2023/04/21 03:31:50;;;;;;;1.50;1.50;;;9.00;99.90;;;;;;4999517;28;20292;-74
2023/04/21 03:34:18;;;;;;;1.50;1.50;;;9.00;99.90;;;;;;5000073;28;20260;-74
2023/04/21 03:36:44;;;;;;;1.85;1.75;;;9.00;99.90;;;;;;5003239;28;20274;-74
2023/04/21 03:39:12;;;;;;;1.80;1.70;;;9.00;99.90;;;;;;5000027;28;20323;-74
2023/04/21 03:41:40;;;;;;;1.38;1.38;;;8.90;99.90;;;;;;5002779;28;20580;-74
2023/04/21 03:44:07;;;;;;;1.88;1.77;;;8.90;99.90;;;;;;5005055;28;20201;-74
2023/04/21 03:46:34;;;;;;;2.17;2.08;;;8.90;99.90;;;;;;4998430;28;20296;-74
2023/04/21 03:49:02;;;;;;;2.30;2.20;;;9.00;99.90;;;;;;5007331;28;20331;-74
2023/04/21 03:51:31;;;;;;;2.08;1.98;;;9.00;99.90;;;;;;5008229;28;20207;-74
2023/04/21 03:53:58;;;;;;;2.08;1.98;;;9.00;99.90;;;;;;5014871;28;20288;-73
2023/04/21 03:56:25;;;;;;;2.10;2.00;;;9.10;99.90;;;;;;4993264;28;20236;-74
2023/04/21 03:58:54;;;;;;;2.40;2.20;;;9.10;99.90;;;;;;4988535;28;20263;-74
2023/04/21 04:01:21;;;;;;;2.17;2.08;;;9.10;99.90;;;;;;5001079;28;20694;-74
2023/04/21 04:03:48;;;;;;;2.03;1.92;;;9.10;99.90;;;;;;5003241;28;20224;-74
2023/04/21 04:06:15;;;;;;;1.88;1.77;;;9.10;99.90;;;;;;4999148;28;20295;-74
2023/04/21 04:08:42;;;;;;;2.40;2.30;;;9.10;99.90;;;;;;5005563;28;20199;-74
2023/04/21 04:11:09;;;;;;;2.33;2.22;;;9.10;99.90;;;;;;5000737;28;20299;-74
2023/04/21 04:13:36;;;;;;;2.30;2.20;;;9.10;99.90;;;;;;5002217;28;20310;-73
2023/04/21 04:16:05;;;;;;;2.50;2.40;;;9.10;99.90;;;;;;4979763;28;20296;-73
2023/04/21 04:18:32;;;;;;;2.58;2.40;;;9.00;99.90;;;;;;5000156;28;20322;-73
2023/04/21 04:20:59;;;;;;;2.20;2.10;;;9.10;99.90;;;;;;4999934;28;20243;-72
2023/04/21 04:23:26;;;;;;;2.05;1.95;;;9.10;99.90;;;;;;5000207;28;20228;-73
2023/04/21 04:25:53;;;;;;;2.10;2.00;;;9.10;99.90;;;;;;4999379;28;20196;-73
2023/04/21 04:28:21;;;;;;;2.10;1.95;;;9.10;99.90;;;;;;5002404;28;20251;-73
2023/04/21 04:30:48;;;;;;;1.80;1.70;;;9.20;99.90;;;;;;4985136;28;20872;-74
2023/04/21 04:33:17;;;;;;;2.05;1.95;;;9.20;99.90;;;;;;5000150;28;20299;-74
2023/04/21 04:35:44;;;;;;;1.77;1.70;;;9.20;99.90;;;;;;4999106;28;20722;-74
2023/04/21 04:38:11;;;;;;;2.10;2.00;;;9.20;99.90;;;;;;4999200;28;20763;-75
2023/04/21 04:40:38;;;;;;;2.03;1.92;;;9.20;99.90;;;;;;4999635;28;20208;-74
2023/04/21 04:43:07;;;;;;;1.77;1.75;;;9.20;99.90;;;;;;5002194;28;20307;-74
2023/04/21 04:45:35;;;;;;;1.88;1.77;;;9.20;99.90;;;;;;4999579;28;20295;-74
2023/04/21 04:48:02;;;;;;;1.70;1.70;;;9.20;99.90;;;;;;4998991;28;20204;-74
2023/04/21 04:50:31;;;;;;;1.73;1.63;;;9.20;99.90;;;;;;5001315;28;20211;-74
2023/04/21 04:52:58;;;;;;;1.52;1.52;;;9.20;99.90;;;;;;5000939;28;20308;-74
2023/04/21 04:55:25;;;;;;;1.77;1.70;;;9.20;99.90;;;;;;5001120;28;20284;-74
2023/04/21 04:57:52;;;;;;;2.17;2.08;;;9.20;99.90;;;;;;5001582;28;20270;-74
2023/04/21 05:00:20;;;;;;;1.40;1.40;;;9.20;99.90;;;;;;4988766;28;20230;-74
2023/04/21 05:02:47;;;;;;;1.67;1.58;;;9.20;99.90;;;;;;5000345;28;20259;-74
2023/04/21 05:05:14;;;;;;;1.80;1.60;;;9.20;99.90;;;;;;5003416;28;20255;-74
2023/04/21 05:07:43;;;;;;;1.80;1.70;;;9.20;99.90;;;;;;5002881;28;20291;-74
2023/04/21 05:10:10;;;;;;;1.70;1.70;;;9.30;99.90;;;;;;4999046;28;20299;-74
2023/04/21 05:12:37;;;;;;;1.48;1.48;;;9.30;99.90;;;;;;4996419;28;20307;-74
2023/04/21 05:15:05;;;;;;;1.85;1.75;;;9.20;99.90;;;;;;5006492;28;20223;-74
2023/04/21 05:17:33;;;;;;;1.50;1.50;;;9.30;99.90;;;;;;4985800;28;20235;-74
2023/04/21 05:20:00;;;;;;;1.60;1.50;;;9.30;99.90;;;;;;4997506;28;20744;-74
2023/04/21 05:22:27;;;;;;;1.55;1.55;;;9.40;99.90;;;;;;4999349;28;20303;-74
2023/04/21 05:24:56;;;;;;;1.40;1.40;;;9.50;99.90;;;;;;4995138;28;20274;-74
2023/04/21 05:27:23;;;;;;;1.60;1.60;;;9.60;99.90;;;;;;4999237;28;20196;-74
2023/04/21 05:29:50;;;;;;;1.20;1.20;;;9.60;99.90;;;;;;4996035;28;20224;-74
2023/04/21 05:32:17;;;;;;;2.08;1.98;;;9.80;99.90;;;;;;5000495;28;20364;-74
2023/04/21 05:34:44;;;;;;;1.77;1.67;;;9.90;99.90;;;;;;5000914;28;20304;-74
2023/04/21 05:37:12;;;;;;;2.00;1.90;;;9.90;99.90;;;;;;4998697;28;20215;-74
2023/04/21 05:39:39;;;;;;;2.00;1.90;;;9.90;99.90;;;;;;4981130;28;20200;-74
2023/04/21 05:42:09;;;;;;;2.15;2.05;;;10.10;99.90;;;;;;5000230;28;20224;-74
2023/04/21 05:44:36;;;;;;;2.10;2.00;;;10.30;99.90;;;;;;4983172;28;20196;-74
2023/04/21 05:47:04;;;;;;;2.80;2.55;;;10.40;99.90;;;;;;4996535;28;20235;-74
2023/04/21 05:49:31;;;;;;;2.00;1.90;;;10.60;99.90;;;;;;4982328;28;20781;-74
2023/04/21 05:51:58;;;;;;;2.17;2.08;;;10.90;99.90;;;;;;4998736;28;20307;-75
2023/04/21 05:54:26;;;;;;;2.10;2.00;;;10.90;99.90;;;;;;4996289;28;20231;-74
2023/04/21 05:56:52;;;;;;;2.53;2.08;;;10.80;99.90;;;;;;4997703;28;20295;-74
2023/04/21 05:59:21;;;;;;;2.10;2.00;;;10.80;99.90;;;;;;4983078;28;20227;-74
2023/04/21 06:01:48;;;;;;;2.45;2.35;;;10.80;99.90;;;;;;5000078;28;20287;-74
2023/04/21 06:04:15;;;;;;;2.33;2.22;;;10.70;99.90;;;;;;4994369;28;20291;-74
2023/04/21 06:06:43;;;;;;;2.10;1.77;;;10.70;99.90;;;;;;4998824;28;20272;-73
2023/04/21 06:09:10;;;;;;;2.25;2.10;;;10.60;99.90;;;;;;4998721;28;20399;-74
2023/04/21 06:11:37;;;;;;;2.17;2.08;;;10.60;99.90;;;;;;4999980;28;20913;-74
2023/04/21 06:14:04;;;;;;;2.25;2.15;;;10.60;99.90;;;;;;4951180;28;1441338;-74
2023/04/21 06:16:33;;;;;;;2.10;2.00;;;10.60;99.90;;;;;;4996070;28;20239;-72
2023/04/21 06:19:00;;;;;;;2.42;2.22;;;10.60;99.90;;;;;;4996029;28;20219;-71
2023/04/21 06:21:27;;;;;;;2.53;2.33;;;10.60;99.90;;;;;;4998625;28;20803;-71
2023/04/21 06:23:54;;;;;;;2.13;2.03;;;10.60;99.90;;;;;;4999175;28;20216;-71
2023/04/21 06:26:22;;;;;;;2.22;1.85;;;10.60;99.90;;;;;;5003394;28;20235;-71
2023/04/21 06:28:49;;;;;;;2.20;2.10;;;10.60;99.90;;;;;;5005484;28;20236;-70
2023/04/21 06:31:17;;;;;;;1.90;1.80;;;10.60;99.90;;;;;;4998361;28;20732;-73
2023/04/21 06:33:46;;;;;;;2.33;2.22;;;10.70;99.90;;;;;;5003214;28;20216;-73
2023/04/21 06:36:13;;;;;;;2.63;2.15;;;10.60;99.90;;;;;;5002215;28;20251;-73
2023/04/21 06:38:42;;;;;;;2.65;2.45;;;10.70;99.90;;;;;;5002491;28;20311;-73
2023/04/21 06:41:09;;;;;;;2.20;2.10;;;10.80;99.90;;;;;;5002016;28;20204;-73
2023/04/21 06:43:36;;;;;;;2.55;2.45;;;10.80;99.90;;;;;;5007735;28;20224;-73
2023/04/21 06:46:03;;;;;;;2.70;2.50;;;10.90;99.90;;;;;;5001208;28;20205;-73
2023/04/21 06:48:31;;;;;;;2.20;2.10;;;10.90;99.90;;;;;;5001322;28;20291;-73
2023/04/21 06:51:01;;;;;;;2.63;2.42;;;10.90;99.90;;;;;;5003439;28;20232;-73
2023/04/21 06:53:28;;;;;;;2.80;2.60;;;11.00;99.90;;;;;;4982910;28;20225;-74
2023/04/21 06:55:55;;;;;;;2.60;2.50;;;11.10;99.90;;;;;;4985301;28;20201;-73
2023/04/21 06:58:22;;;;;;;2.80;2.60;;;11.20;99.90;;;;;;4971124;28;20212;-73
2023/04/21 07:00:50;;;;;;;2.92;2.72;;;11.20;99.90;;;;;;5002378;28;20975;-74
2023/04/21 07:03:17;;;;;;;3.60;3.30;;;11.10;99.90;;;;;;5000730;28;20590;-74
2023/04/21 07:05:44;;;;;;;3.22;3.03;;;11.10;99.90;;;;;;5000430;28;20389;-75
2023/04/21 07:08:13;;;;;;;2.97;2.78;;;11.10;99.90;;;;;;4981179;28;20874;-76
2023/04/21 07:10:40;;;;;;;3.65;3.35;;;11.00;99.90;;;;;;5004041;28;20208;-75
2023/04/21 07:13:08;;;;;;;3.45;3.10;;;11.00;99.90;;;;;;4995494;28;20673;-74
2023/04/21 07:15:35;;;;;;;3.78;2.95;;;11.00;99.90;;;;;;4979539;28;20252;-75
2023/04/21 07:18:03;;;;;;;3.13;2.92;;;11.10;99.90;;;;;;5002673;28;20243;-75
2023/04/21 07:20:30;;;;;;;2.80;2.60;;;11.00;99.90;;;;;;4983342;28;20291;-75
2023/04/21 07:22:57;;;;;;;3.97;2.63;;;11.00;99.90;;;;;;4982058;28;20331;-75
2023/04/21 07:25:25;;;;;;;3.00;2.80;;;11.00;99.90;;;;;;4984041;28;20684;-74
2023/04/21 07:27:53;;;;;;;2.80;2.60;;;11.00;99.90;;;;;;5000617;28;20201;-74
2023/04/21 07:30:20;;;;;;;3.25;3.05;;;11.00;99.90;;;;;;4997338;28;20375;-74
2023/04/21 07:32:47;;;;;;;3.10;2.90;;;11.00;99.90;;;;;;4999939;28;20311;-74
2023/04/21 07:35:14;;;;;;;2.90;2.70;;;11.00;99.90;;;;;;4985261;28;20284;-74
2023/04/21 07:37:41;;;;;;;3.22;3.00;;;10.90;99.90;;;;;;4993000;28;20300;-74
2023/04/21 07:40:09;;;;;;;3.20;3.00;;;10.90;99.90;;;;;;4998914;28;20299;-74
2023/04/21 07:42:38;;;;;;;3.40;3.10;;;10.90;99.90;;;;;;4999530;28;20725;-74
2023/04/21 07:45:06;;;;;;;3.30;3.08;;;10.90;99.90;;;;;;4999855;28;20851;-75
2023/04/21 07:47:33;;;;;;;3.17;2.97;;;10.90;99.90;;;;;;5000346;28;20683;-74
2023/04/21 07:50:01;;;;;;;3.58;3.28;;;11.00;99.90;;;;;;4999732;28;20660;-74
2023/04/21 07:52:28;;;;;;;2.83;2.63;;;11.00;99.90;;;;;;4999196;28;20693;-74
2023/04/21 07:54:55;;;;;;;3.30;3.10;;;11.10;99.90;;;;;;5001039;28;20232;-74
2023/04/21 07:57:22;;;;;;;3.22;3.00;;;11.20;99.90;;;;;;4999761;28;20197;-75
2023/04/21 07:59:50;;;;;;;3.10;2.90;;;11.30;99.90;;;;;;5004468;28;20346;-74
2023/04/21 08:02:18;;;;;;;3.58;3.30;;;11.40;99.90;;;;;;5000529;28;20692;-74
2023/04/21 08:04:45;;;;;;;3.35;3.15;;;11.40;99.90;;;;;;4995546;28;20225;-75
2023/04/21 08:07:14;;;;;;;3.20;3.00;;;11.50;99.90;;;;;;4984501;28;20274;-74
2023/04/21 08:09:41;;;;;;;3.75;3.45;;;11.50;99.90;;;;;;4981035;28;20200;-74
2023/04/21 08:12:08;;;;;;;3.60;3.38;;;11.60;99.90;;;;;;4999088;28;20323;-74
2023/04/21 08:14:35;;;;;;;3.70;3.40;;;11.60;99.90;;;;;;5000015;28;20232;-75
2023/04/21 08:17:03;;;;;;;3.53;3.22;;;11.70;99.90;;;;;;5001515;28;20673;-74
2023/04/21 08:19:31;;;;;;;3.80;3.17;;;11.90;99.90;;;;;;4995439;28;20303;-74
2023/04/21 08:21:58;;;;;;;3.28;3.00;;;12.00;99.90;;;;;;4999415;28;20506;-74
2023/04/21 08:24:25;;;;;;;3.60;3.30;;;12.20;99.90;;;;;;4987540;28;20200;-75
2023/04/21 08:26:52;;;;;;;3.33;3.13;;;12.30;99.90;;;;;;4999070;28;20299;-74
2023/04/21 08:29:20;;;;;;;3.53;3.22;;;12.40;99.90;;;;;;5000054;28;20926;-73
2023/04/21 08:31:47;;;;;;;3.85;3.30;;;12.50;99.90;;;;;;4998297;28;20283;-74
2023/04/21 08:34:15;;;;;;;3.25;3.05;;;12.60;99.90;;;;;;5001419;28;20972;-74
2023/04/21 08:36:43;;;;;;;2.65;2.50;;;12.70;99.90;;;;;;4988172;28;20200;-74
2023/04/21 08:39:10;;;;;;;2.50;2.40;;;12.80;99.90;;;;;;4996701;28;20216;-75
2023/04/21 08:41:40;;;;;;;3.13;2.42;;;13.20;99.90;;;;;;4997883;28;20224;-74
2023/04/21 08:44:07;;;;;;;2.97;2.78;;;13.70;99.90;;;;;;4998383;28;20261;-74
2023/04/21 08:46:36;;;;;;;2.58;2.47;;;13.90;99.90;;;;;;4999334;28;20241;-74
2023/04/21 08:49:03;;;;;;;2.67;2.47;;;13.90;99.90;;;;;;4997402;28;20323;-75
2023/04/21 08:51:32;;;;;;;2.50;2.30;;;14.20;99.90;;;;;;5001850;28;20288;-75
2023/04/21 08:53:59;;;;;;;2.28;2.17;;;14.30;99.90;;;;;;4996074;28;20228;-74
2023/04/21 08:56:27;;;;;;;2.65;2.45;;;14.10;99.90;;;;;;5001372;28;20288;-75
2023/04/21 08:58:54;;;;;;;2.00;1.90;;;14.00;99.90;;;;;;4997660;28;20638;-74
2023/04/21 09:01:21;;;;;;;1.90;1.80;;;13.90;99.90;;;;;;4984706;28;20212;-74
2023/04/21 09:03:48;;;;;;;1.73;1.63;;;13.80;99.90;;;;;;4998864;28;20311;-74
2023/04/21 09:06:15;;;;;;;1.80;1.70;;;13.60;99.90;;;;;;4995581;28;20452;-75
2023/04/21 09:08:52;;;;;;;1.55;1.45;;;13.60;99.90;;;;;;4981861;28;20208;-74
2023/04/21 09:11:19;;;;;;;1.77;1.67;;;13.70;99.90;;;;;;4995114;28;20287;-75
2023/04/21 09:13:46;;;;;;;1.70;1.60;;;13.60;99.90;;;;;;4995033;28;20228;-75
2023/04/21 09:16:19;;;;;;;1.70;1.60;;;13.70;99.90;;;;;;5001888;28;20298;-74
2023/04/21 09:18:47;;;;;;;1.40;1.40;;;13.70;99.90;;;;;;5001056;28;20307;-75
2023/04/21 09:21:16;;;;;;;1.73;1.63;;;13.60;99.90;;;;;;4996784;28;20235;-75
2023/04/21 09:23:47;;;;;;;1.70;1.60;;;13.60;99.90;;;;;;4976825;28;20361;-74
2023/04/21 09:26:15;;;;;;;1.80;1.70;;;13.70;99.90;;;;;;4998843;28;20270;-74
2023/04/21 09:28:42;;;;;;;1.55;1.55;;;13.70;99.90;;;;;;5002409;28;20626;-75
2023/04/21 09:31:18;;;;;;;1.90;1.80;;;13.60;99.90;;;;;;4981535;28;20851;-75
2023/04/21 09:33:46;;;;;;;1.60;1.50;;;13.70;99.90;;;;;;4995720;28;20357;-75
2023/04/21 09:36:19;;;;;;;1.80;1.70;;;13.80;99.90;;;;;;4996415;28;20208;-75
2023/04/21 09:38:55;;;;;;;1.42;1.35;;;13.80;99.90;;;;;;4995162;28;20220;-75
2023/04/21 09:41:22;;;;;;;1.55;1.45;;;14.00;99.90;;;;;;4994574;28;20299;-75
2023/04/21 09:43:49;;;;;;;1.70;1.60;;;14.20;99.90;;;;;;4996202;28;20897;-75
2023/04/21 09:46:17;;;;;;;1.52;1.50;;;14.50;99.90;;;;;;4979066;28;20228;-76
2023/04/21 09:48:46;;;;;;;1.70;1.60;;;14.80;99.90;;;;;;4999211;28;20204;-74
2023/04/21 09:51:15;;;;;;;1.42;1.38;;;15.00;99.90;;;;;;4994754;28;20205;-74
2023/04/21 09:53:44;;;;;;;1.25;1.25;;;15.00;99.90;;;;;;4997913;28;20307;-74
2023/04/21 09:56:14;;;;;;;1.50;1.40;;;14.90;99.90;;;;;;4995879;28;20869;-74
2023/04/21 09:58:46;;;;;;;1.60;1.50;;;15.20;99.90;;;;;;4991486;28;20266;-75
2023/04/21 10:01:14;;;;;;;1.20;1.20;;;15.30;99.90;;;;;;4996168;28;20236;-74
2023/04/21 10:03:44;;;;;;;1.60;1.50;;;15.40;99.90;;;;;;4999529;28;20282;-74
2023/04/21 10:06:12;;;;;;;1.33;1.23;;;15.20;99.90;;;;;;4996301;28;20204;-75
2023/04/21 10:08:40;;;;;;;1.15;1.15;;;15.10;99.90;;;;;;4997160;28;20204;-75
2023/04/21 10:11:07;;;;;;;1.27;1.17;;;15.10;99.90;;;;;;4998568;28;20773;-75
2023/04/21 10:13:36;;;;;;;1.30;1.20;;;15.60;99.90;;;;;;4996935;28;20285;-75
2023/04/21 10:16:06;;;;;;;1.30;1.20;;;15.60;99.90;;;;;;4997381;28;20283;-75
2023/04/21 10:18:36;;;;;;;2.20;1.08;;;15.50;99.90;;;;;;4994420;28;20200;-75
2023/04/21 10:21:06;;;;;;;1.20;1.20;;;15.70;99.90;;;;;;4996909;28;21914;-75
2023/04/21 10:23:37;;;;;;;1.17;1.17;;;16.00;99.90;;;;;;4998814;28;20231;-75
2023/04/21 10:26:08;;;;;;;1.00;1.00;;;16.50;99.90;;;;;;4996773;28;20288;-75
2023/04/21 10:28:56;;;;;;;1.10;1.10;;;16.90;99.90;;;;;;4996059;28;20236;-74
2023/04/21 10:31:28;;;;;;;1.60;1.50;;;17.20;99.90;;;;;;4998209;28;20243;-76
2023/04/21 10:34:18;;;;;;;7.70;4.55;;;17.50;99.90;;;;;;4997848;28;20316;-74
2023/04/21 10:37:14;;;;;;;3.20;2.20;;;17.70;99.90;;;;;;4994688;28;20324;-74
2023/04/21 10:39:57;;;;;;;1.40;1.30;;;17.70;99.90;;;;;;4988063;28;20212;-75
2023/04/21 10:42:36;;;;;;;1.23;1.13;;;17.60;99.90;;;;;;4995944;28;20302;-72
2023/04/21 10:45:14;;;;;;;1.00;1.00;;;17.50;99.90;;;;;;4996461;28;20866;-72
2023/04/21 10:47:47;;;;;;;1.88;1.15;;;17.40;99.90;;;;;;4993131;28;20212;-72
2023/04/21 10:50:17;;;;;;;1.33;1.05;;;17.70;99.90;;;;;;4976695;28;20201;-72
2023/04/21 10:52:45;;;;;;;1.30;1.15;;;17.70;99.90;;;;;;4976094;28;20229;-73
2023/04/21 10:55:14;;;;;;;1.70;1.60;;;17.70;99.90;;;;;;4998550;28;20859;-72
2023/04/21 10:57:44;;;;;;;1.23;1.13;;;17.80;99.90;;;;;;4995907;28;20203;-74
2023/04/21 11:00:15;;;;;;;1.30;1.20;;;18.10;99.90;;;;;;4997927;28;20902;-74
2023/04/21 11:02:42;;;;;;;1.40;1.30;;;18.40;99.90;;;;;;4995916;28;20256;-74
2023/04/21 11:05:10;;;;;;;1.00;1.00;;;18.60;99.90;;;;;;4998554;28;20265;-75
2023/04/21 11:07:37;;;;;;;1.02;1.02;;;18.80;99.90;;;;;;4990770;28;20594;-73
2023/04/21 11:10:07;;;;;;;1.15;1.05;;;18.90;99.90;;;;;;4986060;28;20207;-74
2023/04/21 11:12:36;;;;;;;1.05;1.00;;;19.00;99.90;;;;;;4998278;28;20319;-73
2023/04/21 11:15:07;;;;;;;0.98;0.98;;;18.90;99.90;;;;;;5003330;28;20319;-74
2023/04/21 11:17:38;;;;;;;1.60;1.23;;;18.90;99.90;;;;;;4999158;28;20211;-73
2023/04/21 11:20:06;;;;;;;1.17;1.10;;;19.10;99.90;;;;;;5002917;28;20224;-73
2023/04/21 11:22:36;;;;;;;1.50;1.40;;;19.10;99.90;;;;;;4996408;28;20243;-75
2023/04/21 11:25:03;;;;;;;1.00;1.00;;;18.70;99.90;;;;;;4984083;28;20277;-73
2023/04/21 11:27:30;;;;;;;1.10;1.00;;;18.70;99.90;;;;;;4996952;28;20280;-74
2023/04/21 11:29:58;;;;;;;1.02;1.02;;;18.80;99.90;;;;;;4999406;28;20224;-74
2023/04/21 11:32:25;;;;;;;1.00;1.00;;;18.90;99.90;;;;;;4981185;28;20228;-73
2023/04/21 11:34:54;;;;;;;0.90;0.90;;;18.60;99.90;;;;;;4997094;28;20200;-72
2023/04/21 11:37:26;;;;;;;1.00;1.00;;;18.60;99.90;;;;;;4997277;28;20216;-75
2023/04/21 11:40:00;;;;;;;0.95;0.90;;;18.50;99.90;;;;;;4998910;28;20223;-75
2023/04/21 11:42:27;;;;;;;0.73;0.73;;;18.90;99.90;;;;;;5007754;28;20251;-75
2023/04/21 11:44:56;;;;;;;1.33;1.23;;;19.00;99.90;;;;;;5002051;28;20688;-75
2023/04/21 11:47:24;;;;;;;0.90;0.90;;;19.20;99.90;;;;;;4997425;28;20295;-77
2023/04/21 11:49:55;;;;;;;0.98;0.98;;;19.30;99.90;;;;;;4981082;28;20205;-75
2023/04/21 11:52:27;;;;;;;0.90;0.90;;;19.30;99.90;;;;;;4998011;28;20234;-76
2023/04/21 11:54:58;;;;;;;1.10;1.00;;;19.00;99.90;;;;;;5000324;28;20327;-75
2023/04/21 11:57:27;;;;;;;1.27;1.17;;;19.20;99.90;;;;;;4999527;28;21107;-75
2023/04/21 11:59:59;;;;;;;0.80;0.80;;;18.80;99.90;;;;;;5001443;28;20313;-75
2023/04/21 12:02:29;;;;;;;1.25;1.15;;;18.40;99.90;;;;;;4979772;28;20717;-75
2023/04/21 12:05:03;;;;;;;0.98;0.98;;;17.80;99.90;;;;;;4968125;28;20204;-75
2023/04/21 12:07:31;;;;;;;0.90;0.90;;;17.70;99.90;;;;;;5001035;28;20319;-76
2023/04/21 12:09:58;;;;;;;1.00;1.00;;;18.00;99.90;;;;;;5001769;28;20196;-76
2023/04/21 12:12:26;;;;;;;0.90;0.90;;;18.10;99.90;;;;;;4978087;28;20316;-75
2023/04/21 12:14:54;;;;;;;1.17;1.08;;;18.30;99.90;;;;;;4997555;28;20216;-75
2023/04/21 12:17:21;;;;;;;1.30;1.20;;;18.40;99.90;;;;;;4995335;28;20201;-75
2023/04/21 12:19:49;;;;;;;0.80;0.80;;;18.50;99.90;;;;;;4996289;28;20294;-75
2023/04/21 12:22:19;;;;;;;1.05;1.00;;;18.30;99.90;;;;;;4997226;28;20234;-75
2023/04/21 12:24:46;;;;;;;2.50;1.85;;;17.60;99.90;;;;;;4995651;28;20599;-75
2023/04/21 12:27:14;;;;;;;1.00;1.00;;;17.20;99.90;;;;;;4993503;28;20250;-75
2023/04/21 12:29:41;;;;;;;1.00;1.00;;;17.10;99.90;;;;;;4996150;28;20291;-74
2023/04/21 12:32:09;;;;;;;0.90;0.90;;;17.00;99.90;;;;;;4998117;28;20720;-74
2023/04/21 12:34:36;;;;;;;1.10;1.10;;;17.10;99.90;;;;;;5000581;28;20204;-74
2023/04/21 12:37:04;;;;;;;1.10;1.10;;;17.20;99.90;;;;;;5000367;28;20235;-73
2023/04/21 12:39:33;;;;;;;1.17;1.17;;;17.20;99.90;;;;;;4995148;28;20294;-74
2023/04/21 12:42:01;;;;;;;0.95;0.95;;;17.10;99.90;;;;;;4996801;28;20306;-74
2023/04/21 12:44:28;;;;;;;1.33;1.20;;;17.10;99.90;;;;;;4965894;28;20579;-73
2023/04/21 12:46:56;;;;;;;0.82;0.82;;;17.30;99.90;;;;;;4992913;28;20303;-74
2023/04/21 12:49:23;;;;;;;1.25;1.08;;;17.30;99.90;;;;;;4997987;28;20631;-75
2023/04/21 12:51:50;;;;;;;1.10;1.10;;;17.20;99.90;;;;;;4998570;28;20291;-75
2023/04/21 12:54:17;;;;;;;1.00;1.00;;;17.10;99.90;;;;;;4997801;28;20208;-75